• Join FlightAware (Why Join?)
  • Login
  • US Flag 
05:10PM EST


 

Airport Tracker/Info


-or-


 

Live Flight TrackerFlight Track Log ✈ N7711U ✈ 30-Apr-2012 ✈ RPMI / IGN - KSCH

Flight Track Log - Related Links

Times and Time Zones

All times are in EDT time to prevent confusion due to time zone crossing. See the N7711U flight status page for this flight to view local times or setup timezone preferences in your user account.

Time Position Orientation Groundspeed Altitude Reporting Facility
EDT Latitude Longitude Course Direction KTS MPH feet Rate Location/Type
11:28AM 8.1383 124.2172 17° North  Level FlightAware Approximate
11:29AM 41.6000 -73.6000 323° Northwest 116 133 5,500  Level New York TRACON
11:30AM 41.6167 -73.6167 360° North 116 133 5,500  Level New York TRACON
11:31AM 41.6667 -73.6167 323° Northwest 117 135 5,500  Level New York TRACON
11:32AM 41.6833 -73.6333 360° North 114 131 5,500  Level New York TRACON
11:33AM 41.7167 -73.6333 341° North 114 131 5,600  Climbing New York TRACON
11:34AM 41.7417 -73.6447 348° North 118 136 5,500 -60 Descending Boston Center
11:35AM 41.7728 -73.6539 347° North 118 136 5,500 -60 Level Boston Center
11:36AM 41.7997 -73.6625 346° North 118 136 5,400 -60 Descending Boston Center
11:37AM 41.8350 -73.6744 351° North 118 136 5,400  Level Boston Center
11:38AM 41.8622 -73.6806 352° North 113 130 5,400  Level Boston Center
11:39AM 41.8975 -73.6869 350° North 113 130 5,500 60 Climbing Boston Center
11:40AM 41.9244 -73.6931 353° North 113 130 5,600  Climbing Boston Center
11:41AM 41.9600 -73.6992 350° North 113 130 5,600  Level Boston Center
11:42AM 41.9869 -73.7053 343° North 113 130 5,600 -60 Level Boston Center
11:43AM 42.0222 -73.7200 342° North 113 130 5,500 -60 Descending Boston Center
11:44AM 42.0492 -73.7317 352° North 113 130 5,500  Level Boston Center
11:45AM 42.0844 -73.7381 355° North 108 124 5,500  Level Boston Center
11:46AM 42.1158 -73.7414 349° North 113 130 5,500  Level Boston Center
11:47AM 42.1511 -73.7506 345° North 113 130 5,500  Level Boston Center
11:48AM 42.1925 -73.7656 348° North 115 132 5,500  Level Boston Center
11:49AM 42.2258 -73.7747 352° North 118 136 5,600  Climbing Boston Center
11:50AM 42.2592 -73.7808 345° North 119 137 5,600 -60 Level Boston Center
11:51AM 42.2922 -73.7928 350° North 120 138 5,500 -120 Descending Boston Center
11:54AM 42.3858 -73.8147 352° North 117 135 5,300 -60 Descending Boston Center
11:55AM 42.4169 -73.8208 356° North 118 136 5,300  Level Boston Center
11:56AM 42.4525 -73.8244 348° North 118 136 5,300 -180 Level Boston Center
11:57AM 42.4856 -73.8336 343° North 124 143 5,000 -360 Descending Boston Center
11:58AM 42.5208 -73.8486 350° North 130 150 4,600 -420 Descending Boston Center
11:59AM 42.5603 -73.8581 344° North 131 151 4,200 -240 Descending Boston Center
12:00PM 42.5914 -73.8700 356° North 123 142 4,200 -240 Level Boston Center
12:01PM 42.6289 -73.8736 353° North 129 148 3,700 -480 Descending Boston Center
12:02PM 42.6664 -73.8800 346° North 132 152 3,300 -360 Descending Boston Center
12:03PM 42.7036 -73.8922 347° North 137 158 3,000 -360 Descending Boston Center
12:04PM 42.7411 -73.9044 347° North 136 157 2,600 -420 Descending Boston Center